sensor_id;sensor_type;location;lat;lon;timestamp;temperature;humidity
40828;DHT22;26549;50.918;5.338;2022-09-09T00:01:37;17.70;99.90
40828;DHT22;26549;50.918;5.338;2022-09-09T00:04:42;17.80;99.90
40828;DHT22;26549;50.918;5.338;2022-09-09T00:07:21;17.70;99.90
40828;DHT22;26549;50.918;5.338;2022-09-09T00:10:12;17.70;99.90
40828;DHT22;26549;50.918;5.338;2022-09-09T00:15:22;17.70;99.90
40828;DHT22;26549;50.918;5.338;2022-09-09T00:18:05;17.60;99.90
40828;DHT22;26549;50.918;5.338;2022-09-09T00:20:35;17.60;99.90
40828;DHT22;26549;50.918;5.338;2022-09-09T00:26:11;17.50;99.90
40828;DHT22;26549;50.918;5.338;2022-09-09T00:28:48;17.60;99.90
40828;DHT22;26549;50.918;5.338;2022-09-09T00:31:20;17.60;99.90
40828;DHT22;26549;50.918;5.338;2022-09-09T00:33:49;17.60;99.90
40828;DHT22;26549;50.918;5.338;2022-09-09T00:36:21;17.40;99.90
40828;DHT22;26549;50.918;5.338;2022-09-09T00:38:59;17.30;99.90
40828;DHT22;26549;50.918;5.338;2022-09-09T00:41:51;17.40;99.90
40828;DHT22;26549;50.918;5.338;2022-09-09T00:44:31;17.50;99.90
40828;DHT22;26549;50.918;5.338;2022-09-09T00:49:54;17.40;99.90
40828;DHT22;26549;50.918;5.338;2022-09-09T00:52:36;17.30;99.90
40828;DHT22;26549;50.918;5.338;2022-09-09T00:55:19;17.30;99.90
40828;DHT22;26549;50.918;5.338;2022-09-09T00:57:46;17.40;99.90
40828;DHT22;26549;50.918;5.338;2022-09-09T01:00:24;17.30;99.90
40828;DHT22;26549;50.918;5.338;2022-09-09T01:05:51;17.40;99.90
40828;DHT22;26549;50.918;5.338;2022-09-09T01:08:25;17.50;99.90
40828;DHT22;26549;50.918;5.338;2022-09-09T01:10:58;17.40;99.90
40828;DHT22;26549;50.918;5.338;2022-09-09T01:13:29;17.40;99.90
40828;DHT22;26549;50.918;5.338;2022-09-09T01:15:57;17.30;99.90
40828;DHT22;26549;50.918;5.338;2022-09-09T01:18:28;17.20;99.90
40828;DHT22;26549;50.918;5.338;2022-09-09T01:26:44;16.80;99.90
40828;DHT22;26549;50.918;5.338;2022-09-09T01:29:14;16.80;99.90
40828;DHT22;26549;50.918;5.338;2022-09-09T01:31:58;16.70;99.90
40828;DHT22;26549;50.918;5.338;2022-09-09T01:34:28;16.80;99.90
40828;DHT22;26549;50.918;5.338;2022-09-09T01:37:02;16.90;99.90
40828;DHT22;26549;50.918;5.338;2022-09-09T01:39:30;16.90;99.90
40828;DHT22;26549;50.918;5.338;2022-09-09T01:41:57;17.00;99.90
40828;DHT22;26549;50.918;5.338;2022-09-09T01:44:24;17.10;99.90
40828;DHT22;26549;50.918;5.338;2022-09-09T01:46:51;17.10;99.90
40828;DHT22;26549;50.918;5.338;2022-09-09T01:49:17;17.10;99.90
40828;DHT22;26549;50.918;5.338;2022-09-09T01:51:43;17.10;99.90
40828;DHT22;26549;50.918;5.338;2022-09-09T01:54:10;17.10;99.90
40828;DHT22;26549;50.918;5.338;2022-09-09T01:56:55;17.10;99.90
40828;DHT22;26549;50.918;5.338;2022-09-09T01:59:43;17.10;99.90
40828;DHT22;26549;50.918;5.338;2022-09-09T02:02:14;17.10;99.90
40828;DHT22;26549;50.918;5.338;2022-09-09T02:04:55;17.10;99.90
40828;DHT22;26549;50.918;5.338;2022-09-09T02:07:38;17.10;99.90
40828;DHT22;26549;50.918;5.338;2022-09-09T02:10:19;17.00;99.90
40828;DHT22;26549;50.918;5.338;2022-09-09T02:12:49;17.20;99.90
40828;DHT22;26549;50.918;5.338;2022-09-09T02:18:29;17.30;99.90
40828;DHT22;26549;50.918;5.338;2022-09-09T02:20:56;17.30;99.90
40828;DHT22;26549;50.918;5.338;2022-09-09T02:23:24;17.20;99.90
40828;DHT22;26549;50.918;5.338;2022-09-09T02:25:51;17.20;99.90
40828;DHT22;26549;50.918;5.338;2022-09-09T02:28:19;17.20;99.90
40828;DHT22;26549;50.918;5.338;2022-09-09T02:30:50;17.10;99.90
40828;DHT22;26549;50.918;5.338;2022-09-09T02:33:23;17.20;99.90
40828;DHT22;26549;50.918;5.338;2022-09-09T02:35:51;17.30;99.90
40828;DHT22;26549;50.918;5.338;2022-09-09T02:38:19;17.20;99.90
40828;DHT22;26549;50.918;5.338;2022-09-09T02:40:46;17.10;99.90
40828;DHT22;26549;50.918;5.338;2022-09-09T02:43:14;17.20;99.90
40828;DHT22;26549;50.918;5.338;2022-09-09T02:49:00;17.20;99.90
40828;DHT22;26549;50.918;5.338;2022-09-09T02:54:31;17.10;99.90
40828;DHT22;26549;50.918;5.338;2022-09-09T02:59:27;17.10;99.90
40828;DHT22;26549;50.918;5.338;2022-09-09T03:01:54;17.10;99.90
40828;DHT22;26549;50.918;5.338;2022-09-09T03:04:20;17.20;99.90
40828;DHT22;26549;50.918;5.338;2022-09-09T03:06:46;17.20;99.90
40828;DHT22;26549;50.918;5.338;2022-09-09T03:09:12;17.30;99.90
40828;DHT22;26549;50.918;5.338;2022-09-09T03:11:38;17.30;99.90
40828;DHT22;26549;50.918;5.338;2022-09-09T03:14:04;17.10;99.90
40828;DHT22;26549;50.918;5.338;2022-09-09T03:16:30;17.20;99.90
40828;DHT22;26549;50.918;5.338;2022-09-09T03:18:55;17.20;99.90
40828;DHT22;26549;50.918;5.338;2022-09-09T03:21:21;17.20;99.90
40828;DHT22;26549;50.918;5.338;2022-09-09T03:23:47;17.20;99.90
40828;DHT22;26549;50.918;5.338;2022-09-09T03:26:13;17.30;99.90
40828;DHT22;26549;50.918;5.338;2022-09-09T03:28:41;17.30;99.90
40828;DHT22;26549;50.918;5.338;2022-09-09T03:31:07;17.40;99.90
40828;DHT22;26549;50.918;5.338;2022-09-09T03:33:36;17.30;99.90
40828;DHT22;26549;50.918;5.338;2022-09-09T03:36:04;17.30;99.90
40828;DHT22;26549;50.918;5.338;2022-09-09T03:38:29;17.30;99.90
40828;DHT22;26549;50.918;5.338;2022-09-09T03:40:57;17.30;99.90
40828;DHT22;26549;50.918;5.338;2022-09-09T03:43:24;17.30;99.90
40828;DHT22;26549;50.918;5.338;2022-09-09T03:45:51;17.40;99.90
40828;DHT22;26549;50.918;5.338;2022-09-09T03:48:18;17.30;99.90
40828;DHT22;26549;50.918;5.338;2022-09-09T03:50:48;17.30;99.90
40828;DHT22;26549;50.918;5.338;2022-09-09T03:53:15;17.40;99.90
40828;DHT22;26549;50.918;5.338;2022-09-09T03:55:46;17.40;99.90
40828;DHT22;26549;50.918;5.338;2022-09-09T03:58:15;17.40;99.90
40828;DHT22;26549;50.918;5.338;2022-09-09T04:00:43;17.30;99.90
40828;DHT22;26549;50.918;5.338;2022-09-09T04:03:11;17.40;99.90
40828;DHT22;26549;50.918;5.338;2022-09-09T04:05:39;17.30;99.90
40828;DHT22;26549;50.918;5.338;2022-09-09T04:08:07;17.20;99.90
40828;DHT22;26549;50.918;5.338;2022-09-09T04:10:34;17.20;99.90
40828;DHT22;26549;50.918;5.338;2022-09-09T04:13:02;17.20;99.90
40828;DHT22;26549;50.918;5.338;2022-09-09T04:15:27;17.20;99.90
40828;DHT22;26549;50.918;5.338;2022-09-09T04:17:53;17.20;99.90
40828;DHT22;26549;50.918;5.338;2022-09-09T04:20:19;17.10;99.90
40828;DHT22;26549;50.918;5.338;2022-09-09T04:22:45;17.00;99.90
40828;DHT22;26549;50.918;5.338;2022-09-09T04:25:10;17.10;99.90
40828;DHT22;26549;50.918;5.338;2022-09-09T04:27:36;17.10;99.90
40828;DHT22;26549;50.918;5.338;2022-09-09T04:30:02;17.10;99.90
40828;DHT22;26549;50.918;5.338;2022-09-09T04:32:29;17.20;99.90
40828;DHT22;26549;50.918;5.338;2022-09-09T04:34:55;17.30;99.90
40828;DHT22;26549;50.918;5.338;2022-09-09T04:37:20;17.30;99.90
40828;DHT22;26549;50.918;5.338;2022-09-09T04:39:46;17.20;99.90
40828;DHT22;26549;50.918;5.338;2022-09-09T04:42:13;17.20;99.90
40828;DHT22;26549;50.918;5.338;2022-09-09T04:44:39;17.10;99.90
40828;DHT22;26549;50.918;5.338;2022-09-09T04:47:07;17.10;99.90
40828;DHT22;26549;50.918;5.338;2022-09-09T04:49:32;17.20;99.90
40828;DHT22;26549;50.918;5.338;2022-09-09T04:51:58;17.20;99.90
40828;DHT22;26549;50.918;5.338;2022-09-09T04:54:24;17.20;99.90
40828;DHT22;26549;50.918;5.338;2022-09-09T04:56:50;17.20;99.90
40828;DHT22;26549;50.918;5.338;2022-09-09T04:59:16;17.30;99.90
40828;DHT22;26549;50.918;5.338;2022-09-09T05:01:43;17.20;99.90
40828;DHT22;26549;50.918;5.338;2022-09-09T05:04:09;17.20;99.90
40828;DHT22;26549;50.918;5.338;2022-09-09T05:06:35;17.00;99.90
40828;DHT22;26549;50.918;5.338;2022-09-09T05:09:01;17.00;99.90
40828;DHT22;26549;50.918;5.338;2022-09-09T05:11:30;17.10;99.90
40828;DHT22;26549;50.918;5.338;2022-09-09T05:13:56;17.00;99.90
40828;DHT22;26549;50.918;5.338;2022-09-09T05:16:22;17.10;99.90
40828;DHT22;26549;50.918;5.338;2022-09-09T05:18:48;17.20;99.90
40828;DHT22;26549;50.918;5.338;2022-09-09T05:21:19;17.10;99.90
40828;DHT22;26549;50.918;5.338;2022-09-09T05:23:46;17.20;99.90
40828;DHT22;26549;50.918;5.338;2022-09-09T05:26:14;17.10;99.90
40828;DHT22;26549;50.918;5.338;2022-09-09T05:28:40;17.10;99.90
40828;DHT22;26549;50.918;5.338;2022-09-09T05:31:07;17.10;99.90
40828;DHT22;26549;50.918;5.338;2022-09-09T05:33:40;17.00;99.90
40828;DHT22;26549;50.918;5.338;2022-09-09T05:36:08;17.00;99.90
40828;DHT22;26549;50.918;5.338;2022-09-09T05:38:36;17.00;99.90
40828;DHT22;26549;50.918;5.338;2022-09-09T05:41:03;17.00;99.90
40828;DHT22;26549;50.918;5.338;2022-09-09T05:43:29;17.10;99.90
40828;DHT22;26549;50.918;5.338;2022-09-09T05:46:10;17.30;99.90
40828;DHT22;26549;50.918;5.338;2022-09-09T05:48:40;17.40;99.90
40828;DHT22;26549;50.918;5.338;2022-09-09T05:51:09;17.30;99.90
40828;DHT22;26549;50.918;5.338;2022-09-09T05:53:38;17.40;99.90
40828;DHT22;26549;50.918;5.338;2022-09-09T05:56:06;17.50;99.90
40828;DHT22;26549;50.918;5.338;2022-09-09T05:58:33;17.40;99.90
40828;DHT22;26549;50.918;5.338;2022-09-09T06:01:08;17.40;99.90
40828;DHT22;26549;50.918;5.338;2022-09-09T06:03:34;17.30;99.90
40828;DHT22;26549;50.918;5.338;2022-09-09T06:06:03;17.40;99.90
40828;DHT22;26549;50.918;5.338;2022-09-09T06:08:33;17.40;99.90
40828;DHT22;26549;50.918;5.338;2022-09-09T06:11:04;17.40;99.90
40828;DHT22;26549;50.918;5.338;2022-09-09T06:13:31;17.50;99.90
40828;DHT22;26549;50.918;5.338;2022-09-09T06:15:57;17.50;99.90
40828;DHT22;26549;50.918;5.338;2022-09-09T06:18:24;17.60;99.90
40828;DHT22;26549;50.918;5.338;2022-09-09T06:20:56;17.70;99.90
40828;DHT22;26549;50.918;5.338;2022-09-09T06:23:23;17.70;99.90
40828;DHT22;26549;50.918;5.338;2022-09-09T06:25:49;17.80;99.90
40828;DHT22;26549;50.918;5.338;2022-09-09T06:28:15;17.60;99.90
40828;DHT22;26549;50.918;5.338;2022-09-09T06:30:41;17.70;99.90
40828;DHT22;26549;50.918;5.338;2022-09-09T06:33:07;17.70;99.90
40828;DHT22;26549;50.918;5.338;2022-09-09T06:35:33;17.70;99.90
40828;DHT22;26549;50.918;5.338;2022-09-09T06:37:58;17.90;99.90
40828;DHT22;26549;50.918;5.338;2022-09-09T06:40:25;18.00;99.90
40828;DHT22;26549;50.918;5.338;2022-09-09T06:42:50;18.20;99.90
40828;DHT22;26549;50.918;5.338;2022-09-09T06:45:16;18.30;99.90
40828;DHT22;26549;50.918;5.338;2022-09-09T06:47:43;18.40;99.90
40828;DHT22;26549;50.918;5.338;2022-09-09T06:50:10;18.50;99.90
40828;DHT22;26549;50.918;5.338;2022-09-09T06:52:36;18.60;99.90
40828;DHT22;26549;50.918;5.338;2022-09-09T06:55:03;18.70;99.90
40828;DHT22;26549;50.918;5.338;2022-09-09T06:57:29;18.80;99.90
40828;DHT22;26549;50.918;5.338;2022-09-09T06:59:55;18.70;99.90
40828;DHT22;26549;50.918;5.338;2022-09-09T07:02:20;18.70;99.90
40828;DHT22;26549;50.918;5.338;2022-09-09T07:04:47;18.60;99.90
40828;DHT22;26549;50.918;5.338;2022-09-09T07:07:12;18.60;99.90
40828;DHT22;26549;50.918;5.338;2022-09-09T07:09:40;18.60;99.90
40828;DHT22;26549;50.918;5.338;2022-09-09T07:12:06;18.60;99.90
40828;DHT22;26549;50.918;5.338;2022-09-09T07:14:32;18.50;99.90
40828;DHT22;26549;50.918;5.338;2022-09-09T07:17:01;18.40;99.90
40828;DHT22;26549;50.918;5.338;2022-09-09T07:19:27;18.40;99.90
40828;DHT22;26549;50.918;5.338;2022-09-09T07:21:52;18.50;99.90
40828;DHT22;26549;50.918;5.338;2022-09-09T07:24:19;18.40;99.90
40828;DHT22;26549;50.918;5.338;2022-09-09T07:26:44;18.50;99.90
40828;DHT22;26549;50.918;5.338;2022-09-09T07:29:11;18.60;99.90
40828;DHT22;26549;50.918;5.338;2022-09-09T07:31:42;18.70;99.90
40828;DHT22;26549;50.918;5.338;2022-09-09T07:34:08;18.90;99.90
40828;DHT22;26549;50.918;5.338;2022-09-09T07:36:39;18.90;99.90
40828;DHT22;26549;50.918;5.338;2022-09-09T07:39:10;18.80;99.90
40828;DHT22;26549;50.918;5.338;2022-09-09T07:41:46;18.80;99.90
40828;DHT22;26549;50.918;5.338;2022-09-09T07:44:20;18.70;99.90
40828;DHT22;26549;50.918;5.338;2022-09-09T07:46:50;18.70;99.90
40828;DHT22;26549;50.918;5.338;2022-09-09T07:49:16;18.80;99.90
40828;DHT22;26549;50.918;5.338;2022-09-09T07:51:45;18.90;99.90
40828;DHT22;26549;50.918;5.338;2022-09-09T07:54:13;18.90;99.90
40828;DHT22;26549;50.918;5.338;2022-09-09T07:56:41;18.90;99.90
40828;DHT22;26549;50.918;5.338;2022-09-09T07:59:07;19.00;99.90
40828;DHT22;26549;50.918;5.338;2022-09-09T08:01:37;18.90;99.90
40828;DHT22;26549;50.918;5.338;2022-09-09T08:04:10;18.90;99.90
40828;DHT22;26549;50.918;5.338;2022-09-09T08:06:42;18.90;99.90
40828;DHT22;26549;50.918;5.338;2022-09-09T08:09:08;18.80;99.90
40828;DHT22;26549;50.918;5.338;2022-09-09T08:11:35;18.80;99.90
40828;DHT22;26549;50.918;5.338;2022-09-09T08:14:02;18.80;99.90
40828;DHT22;26549;50.918;5.338;2022-09-09T08:16:31;18.70;99.90
40828;DHT22;26549;50.918;5.338;2022-09-09T08:18:58;18.70;99.90
40828;DHT22;26549;50.918;5.338;2022-09-09T08:21:29;18.70;99.90
40828;DHT22;26549;50.918;5.338;2022-09-09T08:23:56;18.70;99.90
40828;DHT22;26549;50.918;5.338;2022-09-09T08:26:24;18.60;99.90
40828;DHT22;26549;50.918;5.338;2022-09-09T08:28:52;18.80;99.90
40828;DHT22;26549;50.918;5.338;2022-09-09T08:31:20;18.60;99.90
40828;DHT22;26549;50.918;5.338;2022-09-09T08:33:47;18.70;99.90
40828;DHT22;26549;50.918;5.338;2022-09-09T08:36:15;18.60;99.90
40828;DHT22;26549;50.918;5.338;2022-09-09T08:38:42;18.50;99.90
40828;DHT22;26549;50.918;5.338;2022-09-09T08:53:20;18.70;99.90
40828;DHT22;26549;50.918;5.338;2022-09-09T08:58:35;18.70;99.90
40828;DHT22;26549;50.918;5.338;2022-09-09T09:08:51;18.60;99.90
40828;DHT22;26549;50.918;5.338;2022-09-09T09:11:21;18.60;99.90
40828;DHT22;26549;50.918;5.338;2022-09-09T09:14:03;18.70;99.90
40828;DHT22;26549;50.918;5.338;2022-09-09T09:16:49;18.70;99.90
40828;DHT22;26549;50.918;5.338;2022-09-09T09:19:16;18.70;99.90
40828;DHT22;26549;50.918;5.338;2022-09-09T09:22:00;18.70;99.90
40828;DHT22;26549;50.918;5.338;2022-09-09T09:24:51;18.80;99.90
40828;DHT22;26549;50.918;5.338;2022-09-09T09:27:36;18.60;99.90
40828;DHT22;26549;50.918;5.338;2022-09-09T09:30:21;18.70;99.90
40828;DHT22;26549;50.918;5.338;2022-09-09T09:32:52;18.60;99.90
40828;DHT22;26549;50.918;5.338;2022-09-09T09:35:19;18.70;99.90
40828;DHT22;26549;50.918;5.338;2022-09-09T09:37:45;18.70;99.90
40828;DHT22;26549;50.918;5.338;2022-09-09T09:40:22;18.70;99.90
40828;DHT22;26549;50.918;5.338;2022-09-09T09:42:59;18.90;99.90
40828;DHT22;26549;50.918;5.338;2022-09-09T09:45:41;19.00;99.90
40828;DHT22;26549;50.918;5.338;2022-09-09T09:48:12;19.10;99.90
40828;DHT22;26549;50.918;5.338;2022-09-09T09:51:08;19.20;99.90
40828;DHT22;26549;50.918;5.338;2022-09-09T09:53:37;19.30;99.90
40828;DHT22;26549;50.918;5.338;2022-09-09T09:56:07;19.30;99.90
40828;DHT22;26549;50.918;5.338;2022-09-09T09:58:49;19.40;99.90
40828;DHT22;26549;50.918;5.338;2022-09-09T10:01:23;19.40;99.90
40828;DHT22;26549;50.918;5.338;2022-09-09T10:03:52;19.30;99.90
40828;DHT22;26549;50.918;5.338;2022-09-09T10:06:29;19.30;99.90
40828;DHT22;26549;50.918;5.338;2022-09-09T10:08:55;19.10;99.90
40828;DHT22;26549;50.918;5.338;2022-09-09T10:11:43;19.00;99.90
40828;DHT22;26549;50.918;5.338;2022-09-09T10:14:24;19.00;99.90
40828;DHT22;26549;50.918;5.338;2022-09-09T10:19:36;19.10;99.90
40828;DHT22;26549;50.918;5.338;2022-09-09T10:22:12;19.10;99.90
40828;DHT22;26549;50.918;5.338;2022-09-09T10:25:21;19.00;99.90
40828;DHT22;26549;50.918;5.338;2022-09-09T10:30:49;18.70;99.90
40828;DHT22;26549;50.918;5.338;2022-09-09T10:33:32;18.70;99.90
40828;DHT22;26549;50.918;5.338;2022-09-09T10:38:39;18.60;99.90
40828;DHT22;26549;50.918;5.338;2022-09-09T10:41:18;18.30;99.90
40828;DHT22;26549;50.918;5.338;2022-09-09T10:43:52;18.10;99.90
40828;DHT22;26549;50.918;5.338;2022-09-09T10:52:34;18.00;99.90
40828;DHT22;26549;50.918;5.338;2022-09-09T10:55:59;18.10;99.90
40828;DHT22;26549;50.918;5.338;2022-09-09T10:58:05;18.30;99.90
40828;DHT22;26549;50.918;5.338;2022-09-09T11:00:42;18.40;99.90
40828;DHT22;26549;50.918;5.338;2022-09-09T11:03:19;18.40;99.90
40828;DHT22;26549;50.918;5.338;2022-09-09T11:05:49;18.60;99.90
40828;DHT22;26549;50.918;5.338;2022-09-09T11:08:32;18.70;99.90
40828;DHT22;26549;50.918;5.338;2022-09-09T11:19:16;18.90;99.90
40828;DHT22;26549;50.918;5.338;2022-09-09T11:21:50;19.00;99.90
40828;DHT22;26549;50.918;5.338;2022-09-09T11:24:28;19.10;99.90
40828;DHT22;26549;50.918;5.338;2022-09-09T11:38:15;19.90;99.90
40828;DHT22;26549;50.918;5.338;2022-09-09T11:40:47;19.90;99.90
40828;DHT22;26549;50.918;5.338;2022-09-09T11:43:30;19.90;99.90
40828;DHT22;26549;50.918;5.338;2022-09-09T11:45:59;19.80;99.90
40828;DHT22;26549;50.918;5.338;2022-09-09T11:48:36;19.90;99.90
40828;DHT22;26549;50.918;5.338;2022-09-09T11:51:10;20.00;99.90
40828;DHT22;26549;50.918;5.338;2022-09-09T11:53:51;19.90;99.90
40828;DHT22;26549;50.918;5.338;2022-09-09T11:56:30;19.80;99.90
40828;DHT22;26549;50.918;5.338;2022-09-09T11:59:05;19.70;99.90
40828;DHT22;26549;50.918;5.338;2022-09-09T12:01:41;19.60;99.90
40828;DHT22;26549;50.918;5.338;2022-09-09T12:06:46;19.50;99.90
40828;DHT22;26549;50.918;5.338;2022-09-09T12:09:43;19.50;99.90
40828;DHT22;26549;50.918;5.338;2022-09-09T12:19:43;19.20;99.90
40828;DHT22;26549;50.918;5.338;2022-09-09T12:23:14;19.00;99.90
40828;DHT22;26549;50.918;5.338;2022-09-09T12:28:18;18.70;99.90
40828;DHT22;26549;50.918;5.338;2022-09-09T12:33:20;18.40;99.90
40828;DHT22;26549;50.918;5.338;2022-09-09T12:35:54;18.60;99.90
40828;DHT22;26549;50.918;5.338;2022-09-09T12:38:37;18.70;99.90
40828;DHT22;26549;50.918;5.338;2022-09-09T12:41:24;18.60;99.90
40828;DHT22;26549;50.918;5.338;2022-09-09T12:43:51;18.80;99.90
40828;DHT22;26549;50.918;5.338;2022-09-09T12:49:04;18.90;99.90
40828;DHT22;26549;50.918;5.338;2022-09-09T12:51:34;19.10;99.90
40828;DHT22;26549;50.918;5.338;2022-09-09T12:54:01;19.30;99.90
40828;DHT22;26549;50.918;5.338;2022-09-09T12:56:35;19.50;99.90
40828;DHT22;26549;50.918;5.338;2022-09-09T12:59:04;19.70;99.90
40828;DHT22;26549;50.918;5.338;2022-09-09T13:01:32;20.00;99.90
40828;DHT22;26549;50.918;5.338;2022-09-09T13:03:59;19.90;99.90
40828;DHT22;26549;50.918;5.338;2022-09-09T13:06:28;19.90;99.90
40828;DHT22;26549;50.918;5.338;2022-09-09T13:08:59;20.00;99.90
40828;DHT22;26549;50.918;5.338;2022-09-09T13:11:41;20.20;99.90
40828;DHT22;26549;50.918;5.338;2022-09-09T13:14:18;20.30;99.90
40828;DHT22;26549;50.918;5.338;2022-09-09T13:16:57;20.20;99.90
40828;DHT22;26549;50.918;5.338;2022-09-09T13:19:25;20.20;99.90
40828;DHT22;26549;50.918;5.338;2022-09-09T13:21:57;20.30;99.90
40828;DHT22;26549;50.918;5.338;2022-09-09T13:26:57;20.30;99.90
40828;DHT22;26549;50.918;5.338;2022-09-09T13:29:24;20.60;99.90
40828;DHT22;26549;50.918;5.338;2022-09-09T13:31:52;20.70;99.90
40828;DHT22;26549;50.918;5.338;2022-09-09T13:34:31;20.70;99.90
40828;DHT22;26549;50.918;5.338;2022-09-09T13:37:26;20.60;99.90
40828;DHT22;26549;50.918;5.338;2022-09-09T13:39:54;20.40;99.90
40828;DHT22;26549;50.918;5.338;2022-09-09T13:42:29;20.60;99.90
40828;DHT22;26549;50.918;5.338;2022-09-09T13:45:00;20.70;99.90
40828;DHT22;26549;50.918;5.338;2022-09-09T13:47:36;20.90;99.90
40828;DHT22;26549;50.918;5.338;2022-09-09T13:50:22;21.00;99.90
40828;DHT22;26549;50.918;5.338;2022-09-09T13:52:51;21.10;99.90
40828;DHT22;26549;50.918;5.338;2022-09-09T13:55:22;21.20;99.90
40828;DHT22;26549;50.918;5.338;2022-09-09T13:57:55;21.20;99.90
40828;DHT22;26549;50.918;5.338;2022-09-09T14:00:21;21.30;99.90
40828;DHT22;26549;50.918;5.338;2022-09-09T14:02:48;21.40;99.90
40828;DHT22;26549;50.918;5.338;2022-09-09T14:05:14;21.40;99.90
40828;DHT22;26549;50.918;5.338;2022-09-09T14:07:42;21.30;99.90
40828;DHT22;26549;50.918;5.338;2022-09-09T14:10:09;21.20;99.90
40828;DHT22;26549;50.918;5.338;2022-09-09T14:12:37;21.10;99.90
40828;DHT22;26549;50.918;5.338;2022-09-09T14:15:05;21.00;99.90
40828;DHT22;26549;50.918;5.338;2022-09-09T14:17:32;20.90;99.90
40828;DHT22;26549;50.918;5.338;2022-09-09T14:19:58;21.10;99.90
40828;DHT22;26549;50.918;5.338;2022-09-09T14:22:24;21.20;99.90
40828;DHT22;26549;50.918;5.338;2022-09-09T14:24:51;21.20;99.90
40828;DHT22;26549;50.918;5.338;2022-09-09T14:27:17;21.20;99.90
40828;DHT22;26549;50.918;5.338;2022-09-09T14:29:44;21.20;99.90
40828;DHT22;26549;50.918;5.338;2022-09-09T14:32:11;21.10;99.90
40828;DHT22;26549;50.918;5.338;2022-09-09T14:34:37;21.10;99.90
40828;DHT22;26549;50.918;5.338;2022-09-09T14:37:03;20.90;99.90
40828;DHT22;26549;50.918;5.338;2022-09-09T14:39:29;21.00;99.90
40828;DHT22;26549;50.918;5.338;2022-09-09T14:41:56;21.10;99.90
40828;DHT22;26549;50.918;5.338;2022-09-09T14:44:22;21.20;99.90
40828;DHT22;26549;50.918;5.338;2022-09-09T14:46:48;21.30;99.90
40828;DHT22;26549;50.918;5.338;2022-09-09T14:49:17;21.40;99.90
40828;DHT22;26549;50.918;5.338;2022-09-09T14:51:45;21.40;99.90
40828;DHT22;26549;50.918;5.338;2022-09-09T14:54:12;21.50;99.90
40828;DHT22;26549;50.918;5.338;2022-09-09T14:56:38;21.70;99.90
40828;DHT22;26549;50.918;5.338;2022-09-09T14:59:04;21.70;99.90
40828;DHT22;26549;50.918;5.338;2022-09-09T15:01:30;21.70;99.90
40828;DHT22;26549;50.918;5.338;2022-09-09T15:04:03;21.60;99.90
40828;DHT22;26549;50.918;5.338;2022-09-09T15:06:30;21.50;99.90
40828;DHT22;26549;50.918;5.338;2022-09-09T15:09:01;21.30;99.90
40828;DHT22;26549;50.918;5.338;2022-09-09T15:11:30;21.20;99.90
40828;DHT22;26549;50.918;5.338;2022-09-09T15:13:58;21.20;99.90
40828;DHT22;26549;50.918;5.338;2022-09-09T15:16:26;21.30;99.90
40828;DHT22;26549;50.918;5.338;2022-09-09T15:18:55;21.20;99.90
40828;DHT22;26549;50.918;5.338;2022-09-09T15:21:24;21.20;99.90
40828;DHT22;26549;50.918;5.338;2022-09-09T15:23:50;21.20;99.90
40828;DHT22;26549;50.918;5.338;2022-09-09T15:26:16;21.10;99.90
40828;DHT22;26549;50.918;5.338;2022-09-09T15:28:44;21.10;99.90
40828;DHT22;26549;50.918;5.338;2022-09-09T15:31:24;20.90;99.90
40828;DHT22;26549;50.918;5.338;2022-09-09T15:33:53;20.90;99.90
40828;DHT22;26549;50.918;5.338;2022-09-09T15:36:20;20.80;99.90
40828;DHT22;26549;50.918;5.338;2022-09-09T15:38:46;20.90;99.90
40828;DHT22;26549;50.918;5.338;2022-09-09T15:41:16;20.90;99.90
40828;DHT22;26549;50.918;5.338;2022-09-09T15:43:48;20.90;99.90
40828;DHT22;26549;50.918;5.338;2022-09-09T15:48:57;20.90;99.90
40828;DHT22;26549;50.918;5.338;2022-09-09T15:51:24;21.00;99.90
40828;DHT22;26549;50.918;5.338;2022-09-09T15:53:58;21.00;99.90
40828;DHT22;26549;50.918;5.338;2022-09-09T15:56:28;21.20;99.90
40828;DHT22;26549;50.918;5.338;2022-09-09T15:58:57;21.30;99.90
40828;DHT22;26549;50.918;5.338;2022-09-09T16:01:26;21.40;99.90
40828;DHT22;26549;50.918;5.338;2022-09-09T16:03:53;21.60;99.90
40828;DHT22;26549;50.918;5.338;2022-09-09T16:06:22;21.70;99.90
40828;DHT22;26549;50.918;5.338;2022-09-09T16:08:50;21.60;99.90
40828;DHT22;26549;50.918;5.338;2022-09-09T16:11:25;21.50;99.90
40828;DHT22;26549;50.918;5.338;2022-09-09T16:13:53;21.40;99.90
40828;DHT22;26549;50.918;5.338;2022-09-09T16:16:22;21.40;99.90
40828;DHT22;26549;50.918;5.338;2022-09-09T16:18:52;21.30;99.90
40828;DHT22;26549;50.918;5.338;2022-09-09T16:23:46;21.10;99.90
40828;DHT22;26549;50.918;5.338;2022-09-09T16:26:13;21.00;99.90
40828;DHT22;26549;50.918;5.338;2022-09-09T16:28:39;20.90;99.90
40828;DHT22;26549;50.918;5.338;2022-09-09T16:31:13;20.80;99.90
40828;DHT22;26549;50.918;5.338;2022-09-09T16:33:40;20.70;99.90
40828;DHT22;26549;50.918;5.338;2022-09-09T16:36:11;20.60;99.90
40828;DHT22;26549;50.918;5.338;2022-09-09T16:38:39;20.40;99.90
40828;DHT22;26549;50.918;5.338;2022-09-09T16:41:06;20.40;99.90
40828;DHT22;26549;50.918;5.338;2022-09-09T16:43:33;20.20;99.90
40828;DHT22;26549;50.918;5.338;2022-09-09T16:45:59;20.20;99.90
40828;DHT22;26549;50.918;5.338;2022-09-09T16:48:30;20.30;99.90
40828;DHT22;26549;50.918;5.338;2022-09-09T16:51:04;20.30;99.90
40828;DHT22;26549;50.918;5.338;2022-09-09T16:53:31;20.10;99.90
40828;DHT22;26549;50.918;5.338;2022-09-09T16:55:57;20.20;99.90
40828;DHT22;26549;50.918;5.338;2022-09-09T16:58:22;20.20;99.90
40828;DHT22;26549;50.918;5.338;2022-09-09T17:00:48;20.20;99.90
40828;DHT22;26549;50.918;5.338;2022-09-09T17:03:14;20.30;99.90
40828;DHT22;26549;50.918;5.338;2022-09-09T17:05:41;20.40;99.90
40828;DHT22;26549;50.918;5.338;2022-09-09T17:08:07;20.30;99.90
40828;DHT22;26549;50.918;5.338;2022-09-09T17:10:33;20.20;99.90
40828;DHT22;26549;50.918;5.338;2022-09-09T17:12:58;20.00;99.90
40828;DHT22;26549;50.918;5.338;2022-09-09T17:15:24;20.00;99.90
40828;DHT22;26549;50.918;5.338;2022-09-09T17:17:50;20.10;99.90
40828;DHT22;26549;50.918;5.338;2022-09-09T17:20:19;20.10;99.90
40828;DHT22;26549;50.918;5.338;2022-09-09T17:22:45;20.10;99.90
40828;DHT22;26549;50.918;5.338;2022-09-09T17:25:11;20.10;99.90
40828;DHT22;26549;50.918;5.338;2022-09-09T17:27:36;20.00;99.90
40828;DHT22;26549;50.918;5.338;2022-09-09T17:30:03;20.00;99.90
40828;DHT22;26549;50.918;5.338;2022-09-09T17:32:29;19.90;99.90
40828;DHT22;26549;50.918;5.338;2022-09-09T17:34:55;19.90;99.90
40828;DHT22;26549;50.918;5.338;2022-09-09T17:37:21;20.00;99.90
40828;DHT22;26549;50.918;5.338;2022-09-09T17:39:47;20.00;99.90
40828;DHT22;26549;50.918;5.338;2022-09-09T17:42:12;19.90;99.90